Oriska, North Dakota
Current Conditions -  °F | °C
As of 8:15 PM on Saturday 22 Nov 2014 (Local Time) from KBAC Reporting Station
Overcast Overcast  
Wind Chill: 26°   Ceiling: 10000
Heat Index: 32°   Visibility: 10mi
Dew Point: 32°   Wind: 7mph
Humidity: 100%   Direction: 170°S
Pressure: 29.35"   Gusts: NA
Location:  46.93°N, 97.79°W
Report Text: KBAC 230215Z AUTO 17006KT 10SM FEW070 OVC100 00/00 A2935 RMK AO2
Loading
Personal Weather Stations






























Interactive Weather Map New forecast layout! Learn more

10-Day Weather Forecast

Advertisements
Track Severe Weather on mobile